North River — WYR2549 — position and weather

sailwx.info

Track history (hours):
 
Tides and Currents Weather Stations Pressure Air Temp Water Temp Dewpoint Dewpoint Depression Visibility Wind Speed Wind Dir Waves Ship Positions

North River

Owner: CITY OF NEW YORK, Brooklyn, NY. More information available from US FCC via Universal Licensing System and Coast Guard Vessel Documentation Center.

Last reported at 2017-Jun-22 21:20 UTC. Time now 2017-Jun-23 12:16 UTC.
Position N 40°47' W 073°53'.

Length 78 m.

Type: Tanker. MMSI: 367074110.

Date/timePositionNaut miles runAvg speedWind from/ knotsBaromVisibWave heightAir tempDewpointWater temp
2017-Jun-22 21:20N 40°47' W 073°53'1 3.4
2017-Jun-22 20:59N 40°48' W 073°53'0 0.0
2017-Jun-22 20:29N 40°48' W 073°53'0 0.0
2017-Jun-22 19:52N 40°48' W 073°53'0 0.0
2017-Jun-22 19:28N 40°48' W 073°53'0 0.0
2017-Jun-22 18:59N 40°48' W 073°53'0 0.5
2017-Jun-22 18:31N 40°48' W 073°53'4 7.3
2017-Jun-22 18:00N 40°46' W 073°57'3 7.0
2017-Jun-22 17:31N 40°42' W 073°59'2 4.7
2017-Jun-22 17:01N 40°44' W 074°01'611.6
2017-Jun-22 16:30N 40°49' W 073°58'0 0.6
2017-Jun-22 16:00N 40°49' W 073°58'0 0.0
2017-Jun-22 15:31N 40°49' W 073°58'0 0.0
2017-Jun-22 15:01N 40°49' W 073°58'8 5.0
2017-Jun-22 13:31N 40°42' W 074°00'5 9.9
2017-Jun-22 13:00N 40°46' W 073°56'2 4.5
2017-Jun-22 12:30N 40°47' W 073°54'0 0.0
2017-Jun-22 12:00N 40°47' W 073°54'0 0.0
2017-Jun-22 11:30N 40°47' W 073°54'  
2017-Jun-17 20:37N 40°47' W 073°54'1 6.7
2017-Jun-17 20:30N 40°48' W 073°54'1 1.1
2017-Jun-17 20:00N 40°48' W 073°53'0 0.0
2017-Jun-17 19:30N 40°48' W 073°53'0 0.0
2017-Jun-17 18:40N 40°48' W 073°53'0 0.0
2017-Jun-17 18:30N 40°48' W 073°53'0 0.2
2017-Jun-17 18:00N 40°48' W 073°53'611.9
2017-Jun-17 17:30N 40°44' W 073°58'3 5.2
2017-Jun-17 17:00N 40°43' W 074°01'4 8.1
2017-Jun-17 16:30N 40°47' W 073°60'3 6.3
2017-Jun-17 16:00N 40°49' W 073°58'0 0.0
2017-Jun-17 15:30N 40°49' W 073°58'0 0.0
2017-Jun-17 15:00N 40°49' W 073°58'0 0.0
2017-Jun-17 14:30N 40°49' W 073°58'4 3.7
2017-Jun-17 13:30N 40°46' W 074°00'4 8.6
2017-Jun-17 13:00N 40°42' W 074°01'611.8
2017-Jun-17 12:30N 40°47' W 073°56'2 4.2
2017-Jun-17 12:00N 40°47' W 073°54'0 0.0
2017-Jun-17 11:30N 40°47' W 073°54'0 0.0
2017-Jun-15 21:28N 40°47' W 073°54'1 2.6
2017-Jun-15 21:00N 40°48' W 073°53'0 0.0
2017-Jun-15 20:30N 40°48' W 073°53'0 0.0
2017-Jun-15 20:00N 40°48' W 073°53'0 0.0
2017-Jun-15 19:30N 40°48' W 073°53'0 0.0
2017-Jun-15 19:00N 40°48' W 073°53'4 6.7
2017-Jun-15 18:26N 40°46' W 073°57'4 9.7
2017-Jun-15 18:00N 40°42' W 073°60'3 5.8
2017-Jun-15 17:30N 40°45' W 074°01'4 8.5
2017-Jun-15 17:00N 40°49' W 073°58'1 1.8
2017-Jun-15 16:30N 40°49' W 073°58'0 0.0
2017-Jun-15 16:00N 40°49' W 073°58'0 0.0
2017-Jun-15 15:30N 40°49' W 073°58'0 0.0
2017-Jun-15 15:00N 40°49' W 073°58'2 3.1
2017-Jun-15 14:30N 40°48' W 073°59'5 5.3
2017-Jun-15 13:30N 40°43' W 073°58'5 9.1
2017-Jun-15 12:57N 40°47' W 073°55'1 2.6
2017-Jun-15 12:30N 40°47' W 073°54'0 0.0
2017-Jun-15 12:00N 40°47' W 073°54'0 0.0
2017-Jun-15 11:30N 40°47' W 073°54'  
Track history (hours):
 
Tides and Currents Weather Stations Pressure Air Temp Water Temp Dewpoint Dewpoint Depression Visibility Wind Speed Wind Dir Waves Ship Positions

North River

Owner: CITY OF NEW YORK, Brooklyn, NY. More information available from US FCC via Universal Licensing System and Coast Guard Vessel Documentation Center.

Last reported at 2017-Jun-22 21:20 UTC. Time now 2017-Jun-23 12:16 UTC.
Position N 40°47' W 073°53'.

Length 78 m.

Type: Tanker. MMSI: 367074110.

Date/timePositionNaut miles runAvg speedWind from/ knotsBaromVisibWave heightAir tempDewpointWater temp
2017-Jun-22 21:20N 40°47' W 073°53'1 3.4
2017-Jun-22 20:59N 40°48' W 073°53'0 0.0
2017-Jun-22 20:29N 40°48' W 073°53'0 0.0
2017-Jun-22 19:52N 40°48' W 073°53'0 0.0
2017-Jun-22 19:28N 40°48' W 073°53'0 0.0
2017-Jun-22 18:59N 40°48' W 073°53'0 0.5
2017-Jun-22 18:31N 40°48' W 073°53'4 7.3
2017-Jun-22 18:00N 40°46' W 073°57'3 7.0
2017-Jun-22 17:31N 40°42' W 073°59'2 4.7
2017-Jun-22 17:01N 40°44' W 074°01'611.6
2017-Jun-22 16:30N 40°49' W 073°58'0 0.6
2017-Jun-22 16:00N 40°49' W 073°58'0 0.0
2017-Jun-22 15:31N 40°49' W 073°58'0 0.0
2017-Jun-22 15:01N 40°49' W 073°58'8 5.0
2017-Jun-22 13:31N 40°42' W 074°00'5 9.9
2017-Jun-22 13:00N 40°46' W 073°56'2 4.5
2017-Jun-22 12:30N 40°47' W 073°54'0 0.0
2017-Jun-22 12:00N 40°47' W 073°54'0 0.0
2017-Jun-22 11:30N 40°47' W 073°54'  
2017-Jun-17 20:37N 40°47' W 073°54'1 6.7
2017-Jun-17 20:30N 40°48' W 073°54'1 1.1
2017-Jun-17 20:00N 40°48' W 073°53'0 0.0
2017-Jun-17 19:30N 40°48' W 073°53'0 0.0
2017-Jun-17 18:40N 40°48' W 073°53'0 0.0
2017-Jun-17 18:30N 40°48' W 073°53'0 0.2
2017-Jun-17 18:00N 40°48' W 073°53'611.9
2017-Jun-17 17:30N 40°44' W 073°58'3 5.2
2017-Jun-17 17:00N 40°43' W 074°01'4 8.1
2017-Jun-17 16:30N 40°47' W 073°60'3 6.3
2017-Jun-17 16:00N 40°49' W 073°58'0 0.0
2017-Jun-17 15:30N 40°49' W 073°58'0 0.0
2017-Jun-17 15:00N 40°49' W 073°58'0 0.0
2017-Jun-17 14:30N 40°49' W 073°58'4 3.7
2017-Jun-17 13:30N 40°46' W 074°00'4 8.6
2017-Jun-17 13:00N 40°42' W 074°01'611.8
2017-Jun-17 12:30N 40°47' W 073°56'2 4.2
2017-Jun-17 12:00N 40°47' W 073°54'0 0.0
2017-Jun-17 11:30N 40°47' W 073°54'0 0.0
2017-Jun-15 21:28N 40°47' W 073°54'1 2.6
2017-Jun-15 21:00N 40°48' W 073°53'0 0.0
2017-Jun-15 20:30N 40°48' W 073°53'0 0.0
2017-Jun-15 20:00N 40°48' W 073°53'0 0.0
2017-Jun-15 19:30N 40°48' W 073°53'0 0.0
2017-Jun-15 19:00N 40°48' W 073°53'4 6.7
2017-Jun-15 18:26N 40°46' W 073°57'4 9.7
2017-Jun-15 18:00N 40°42' W 073°60'3 5.8
2017-Jun-15 17:30N 40°45' W 074°01'4 8.5
2017-Jun-15 17:00N 40°49' W 073°58'1 1.8
2017-Jun-15 16:30N 40°49' W 073°58'0 0.0
2017-Jun-15 16:00N 40°49' W 073°58'0 0.0
2017-Jun-15 15:30N 40°49' W 073°58'0 0.0
2017-Jun-15 15:00N 40°49' W 073°58'2 3.1
2017-Jun-15 14:30N 40°48' W 073°59'5 5.3
2017-Jun-15 13:30N 40°43' W 073°58'5 9.1
2017-Jun-15 12:57N 40°47' W 073°55'1 2.6
2017-Jun-15 12:30N 40°47' W 073°54'0 0.0
2017-Jun-15 12:00N 40°47' W 073°54'0 0.0
2017-Jun-15 11:30N 40°47' W 073°54'  

Dump ship's entire track history